Time;durP1;ratioP1;P1;durP2;ratioP2;P2;SDS_P1;SDS_P2;PMS_P1;PMS_P2;Temp;Humidity;BMP_temperature;BMP_pressure;BME280_temperature;BME280_humidity;BME280_pressure;Samples;Min_cycle;Max_cycle;Signal;HPM_P1;HPM_P2
2022/12/08 00:01:38;;;;;;;11.63;10.47;;;;;;;2.04;100.00;96307.88;5033084;28;20639;-63
2022/12/08 00:04:04;;;;;;;10.77;9.23;;;;;;;1.94;100.00;96309.97;5032204;28;20206;-63
2022/12/08 00:09:38;;;;;;;10.50;8.73;;;;;;;1.91;100.00;96313.72;5033485;28;20260;-63
2022/12/08 00:12:12;;;;;;;11.50;9.50;;;;;;;1.96;100.00;96311.38;5033087;28;20189;-63
2022/12/08 00:14:43;;;;;;;10.60;9.53;;;;;;;1.93;100.00;96303.22;5032964;28;20185;-63
2022/12/08 00:17:11;;;;;;;10.27;9.17;;;;;;;2.00;100.00;96304.06;5032886;28;20571;-63
2022/12/08 00:19:38;;;;;;;10.63;9.50;;;;;;;1.81;100.00;96308.06;5032715;28;20301;-63
2022/12/08 00:22:05;;;;;;;9.93;9.00;;;;;;;1.69;100.00;96309.53;5033040;28;20190;-63
2022/12/08 00:24:33;;;;;;;13.23;10.43;;;;;;;1.65;100.00;96297.97;5031781;28;20581;-63
2022/12/08 00:27:00;;;;;;;11.27;10.17;;;;;;;1.77;100.00;96299.09;5031826;28;20185;-63
2022/12/08 00:29:26;;;;;;;11.47;10.27;;;;;;;1.91;100.00;96298.22;5032620;28;20233;-63
2022/12/08 00:31:52;;;;;;;10.80;9.70;;;;;;;1.73;100.00;96302.22;5032433;28;20194;-63
2022/12/08 00:34:17;;;;;;;10.90;9.77;;;;;;;1.59;100.00;96294.31;5032604;28;20213;-63
2022/12/08 00:36:43;;;;;;;11.83;9.87;;;;;;;1.65;100.00;96298.75;5045048;28;20238;-63
2022/12/08 00:39:10;;;;;;;10.87;9.40;;;;;;;1.57;100.00;96295.47;5052243;28;20213;-63
2022/12/08 00:44:20;;;;;;;11.60;10.40;;;;;;;1.43;100.00;96288.59;5052617;28;20180;-63
2022/12/08 00:46:46;;;;;;;11.80;9.77;;;;;;;1.31;100.00;96275.34;5052332;28;20174;-63
2022/12/08 00:49:12;;;;;;;12.37;10.47;;;;;;;1.19;100.00;96277.59;5051798;28;20708;-62
2022/12/08 00:51:38;;;;;;;13.47;10.67;;;;;;;1.13;100.00;96275.72;5051328;28;20185;-63
2022/12/08 00:54:04;;;;;;;12.20;10.60;;;;;;;1.04;100.00;96273.44;5052186;28;20182;-65
2022/12/08 00:56:30;;;;;;;11.67;10.27;;;;;;;1.08;100.00;96277.25;5052035;28;20174;-64
2022/12/08 00:58:56;;;;;;;10.67;9.53;;;;;;;0.96;100.00;96266.56;5051745;28;20202;-65
2022/12/08 01:01:22;;;;;;;11.63;10.40;;;;;;;1.06;100.00;96272.25;5051236;28;20650;-64
2022/12/08 01:03:47;;;;;;;11.47;10.23;;;;;;;0.96;100.00;96271.72;5051142;28;20232;-64
2022/12/08 01:06:13;;;;;;;12.53;11.23;;;;;;;0.85;100.00;96272.19;5051788;28;20602;-64
2022/12/08 01:08:39;;;;;;;11.23;10.00;;;;;;;0.81;100.00;96274.31;5051998;28;20209;-64
2022/12/08 01:11:07;;;;;;;12.10;10.50;;;;;;;0.84;100.00;96273.97;5051609;28;20277;-64
2022/12/08 01:13:32;;;;;;;13.37;11.27;;;;;;;0.75;100.00;96271.66;5051799;28;20178;-63
2022/12/08 01:15:58;;;;;;;11.90;10.57;;;;;;;0.67;100.00;96264.78;5033788;28;20178;-63
2022/12/08 01:18:26;;;;;;;13.47;11.27;;;;;;;0.62;100.00;96274.84;5053021;28;20680;-63
2022/12/08 01:20:51;;;;;;;12.90;11.50;;;;;;;0.63;100.00;96273.88;5056044;28;20174;-62
2022/12/08 01:23:17;;;;;;;13.63;11.63;;;;;;;0.57;100.00;96279.72;5055746;28;20185;-63
2022/12/08 01:25:42;;;;;;;13.60;11.80;;;;;;;0.55;100.00;96288.63;5055819;28;20182;-63
2022/12/08 01:28:07;;;;;;;13.67;12.27;;;;;;;0.49;100.00;96281.59;5055593;28;20719;-63
2022/12/08 01:30:33;;;;;;;14.87;12.07;;;;;;;0.44;100.00;96286.50;5055832;28;20205;-63
2022/12/08 01:32:59;;;;;;;14.17;12.00;;;;;;;0.36;100.00;96288.16;5054878;28;20193;-62
2022/12/08 01:35:24;;;;;;;14.20;10.93;;;;;;;0.45;100.00;96288.09;5053207;28;20226;-63
2022/12/08 01:37:50;;;;;;;12.73;11.10;;;;;;;0.41;100.00;96280.69;5053883;28;20255;-63
2022/12/08 01:40:15;;;;;;;13.07;11.07;;;;;;;0.39;100.00;96285.22;5055604;28;20209;-63
2022/12/08 01:42:41;;;;;;;14.33;11.10;;;;;;;0.37;100.00;96281.22;5055911;28;20178;-63
2022/12/08 01:45:14;;;;;;;11.70;10.30;;;;;;;0.34;100.00;96282.38;5055417;28;20201;-63
2022/12/08 01:47:44;;;;;;;13.00;10.87;;;;;;;0.32;100.00;96276.59;5055907;28;20202;-63
2022/12/08 01:50:12;;;;;;;12.90;11.27;;;;;;;0.30;100.00;96280.31;5055694;28;20213;-64
2022/12/08 01:52:47;;;;;;;11.43;10.23;;;;;;;0.34;100.00;96284.94;5055527;28;20658;-63
2022/12/08 01:55:20;;;;;;;12.67;11.37;;;;;;;0.39;100.00;96281.88;5055519;28;20532;-63
2022/12/08 01:57:49;;;;;;;13.20;10.63;;;;;;;0.24;100.00;96274.09;5055496;28;20670;-63
2022/12/08 02:00:17;;;;;;;12.97;11.33;;;;;;;0.17;100.00;96272.41;5054829;28;20213;-64
2022/12/08 02:02:48;;;;;;;13.07;11.60;;;;;;;0.14;100.00;96276.13;5055250;28;20182;-63
2022/12/08 02:05:15;;;;;;;13.73;11.37;;;;;;;0.13;100.00;96268.56;5054934;28;20188;-63
2022/12/08 02:07:42;;;;;;;13.50;11.70;;;;;;;0.08;100.00;96258.78;5055127;28;20210;-61
2022/12/08 02:10:09;;;;;;;14.80;13.00;;;;;;;0.08;100.00;96250.25;5055244;28;20202;-63
2022/12/08 02:12:35;;;;;;;16.87;13.60;;;;;;;0.04;100.00;96254.16;5054995;28;20178;-63
2022/12/08 02:15:01;;;;;;;14.30;12.80;;;;;;;0.15;100.00;96257.13;5055470;28;20174;-63
2022/12/08 02:17:56;;;;;;;14.00;12.60;;;;;;;0.07;100.00;96246.06;5054899;28;20237;-63
2022/12/08 02:20:40;;;;;;;16.63;12.63;;;;;;;0.09;100.00;96250.06;5046559;28;20711;-63
2022/12/08 02:23:10;;;;;;;12.77;11.37;;;;;;;0.00;100.00;96243.41;5054534;28;20276;-63
2022/12/08 02:26:01;;;;;;;13.47;11.43;;;;;;;-0.04;100.00;96245.50;5054206;28;20193;-63
2022/12/08 02:29:03;;;;;;;14.03;11.63;;;;;;;-0.06;100.00;96241.53;5054693;28;20228;-63
2022/12/08 02:31:31;;;;;;;19.00;13.53;;;;;;;0.03;100.00;96230.16;5047696;28;20216;-63
2022/12/08 02:34:26;;;;;;;15.10;12.00;;;;;;;-0.18;100.00;96223.09;5054663;28;20182;-63
2022/12/08 02:37:16;;;;;;;13.60;12.00;;;;;;;-0.18;100.00;96220.53;5022181;28;20225;-63
2022/12/08 02:39:51;;;;;;;13.93;12.23;;;;;;;-0.26;100.00;96220.59;5034217;28;20576;-63
2022/12/08 02:42:38;;;;;;;13.57;11.77;;;;;;;-0.26;100.00;96217.22;5034500;28;20573;-64
2022/12/08 02:45:15;;;;;;;16.20;12.37;;;;;;;-0.27;100.00;96223.31;5034936;28;20186;-65
2022/12/08 02:47:42;;;;;;;13.73;11.57;;;;;;;-0.23;100.00;96219.44;5034906;28;20285;-65
2022/12/08 02:50:08;;;;;;;16.63;12.13;;;;;;;-0.26;100.00;96210.28;5034772;28;20197;-65
2022/12/08 02:52:33;;;;;;;15.43;12.80;;;;;;;-0.22;100.00;96211.53;5035000;28;20262;-65
2022/12/08 02:55:04;;;;;;;13.90;12.13;;;;;;;-0.24;100.00;96208.34;5034460;28;20607;-65
2022/12/08 02:57:35;;;;;;;14.30;12.40;;;;;;;-0.25;100.00;96206.75;5034621;28;20207;-66
2022/12/08 03:00:06;;;;;;;15.87;13.03;;;;;;;-0.36;100.00;96212.31;5029271;28;20290;-65
2022/12/08 03:02:41;;;;;;;15.53;12.97;;;;;;;-0.35;100.00;96210.53;5034232;28;20179;-65
2022/12/08 03:05:28;;;;;;;16.57;13.33;;;;;;;-0.39;100.00;96211.84;5033963;28;20224;-65
2022/12/08 03:08:11;;;;;;;16.00;12.40;;;;;;;-0.52;100.00;96205.50;5033185;28;20301;-63
2022/12/08 03:10:45;;;;;;;13.30;11.47;;;;;;;-0.60;100.00;96202.19;5034162;28;20175;-63
2022/12/08 03:13:26;;;;;;;15.80;13.07;;;;;;;-0.47;100.00;96200.66;5033756;28;20186;-63
2022/12/08 03:15:53;;;;;;;16.40;13.47;;;;;;;-0.51;100.00;96198.59;5023943;28;20170;-63
2022/12/08 03:18:25;;;;;;;16.10;13.30;;;;;;;-0.47;100.00;96195.50;5033695;28;20353;-63
2022/12/08 03:20:50;;;;;;;15.87;13.30;;;;;;;-0.58;100.00;96198.47;5034008;28;20178;-63
2022/12/08 03:23:17;;;;;;;16.10;12.97;;;;;;;-0.54;100.00;96202.28;5033861;28;20209;-64
2022/12/08 03:25:55;;;;;;;16.23;13.13;;;;;;;-0.60;100.00;96210.69;5033848;28;20241;-64
2022/12/08 03:28:21;;;;;;;15.03;12.60;;;;;;;-0.59;100.00;96196.88;5033532;28;20206;-63
2022/12/08 03:30:50;;;;;;;16.33;12.43;;;;;;;-0.65;100.00;96194.16;5033548;28;20201;-64
2022/12/08 03:33:23;;;;;;;14.60;12.67;;;;;;;-0.61;100.00;96185.94;5033558;28;20274;-64
2022/12/08 03:35:50;;;;;;;13.97;12.33;;;;;;;-0.67;100.00;96191.00;5039126;28;20225;-65
2022/12/08 03:38:16;;;;;;;14.20;12.47;;;;;;;-0.71;100.00;96187.94;5053315;28;20263;-63
2022/12/08 03:40:43;;;;;;;16.70;13.43;;;;;;;-0.75;100.00;96188.47;5052995;28;20178;-64
2022/12/08 03:43:09;;;;;;;14.13;12.40;;;;;;;-0.76;100.00;96181.69;5053310;28;20267;-66
2022/12/08 03:45:35;;;;;;;15.93;12.60;;;;;;;-0.72;100.00;96173.47;5053557;28;20178;-63
2022/12/08 03:48:01;;;;;;;13.47;12.13;;;;;;;-0.69;100.00;96169.75;5053219;28;20208;-64
2022/12/08 03:50:26;;;;;;;15.23;12.60;;;;;;;-0.67;100.00;96170.41;5053638;28;20176;-64
2022/12/08 03:52:51;;;;;;;17.30;12.50;;;;;;;-0.67;100.00;96157.53;5053136;28;20182;-65
2022/12/08 03:55:17;;;;;;;13.80;12.37;;;;;;;-0.71;100.00;96162.22;5053439;28;20638;-63
2022/12/08 03:57:43;;;;;;;14.17;12.43;;;;;;;-0.74;100.00;96156.63;5052666;28;20210;-66
2022/12/08 04:00:13;;;;;;;16.07;11.50;;;;;;;-0.78;100.00;96157.94;5052544;28;20213;-63
2022/12/08 04:02:39;;;;;;;13.77;12.13;;;;;;;-0.75;100.00;96162.72;5053094;28;20261;-63
2022/12/08 04:05:04;;;;;;;14.63;11.63;;;;;;;-0.79;100.00;96164.84;5052927;28;20225;-63
2022/12/08 04:07:30;;;;;;;13.33;11.67;;;;;;;-0.83;100.00;96168.72;5052990;28;20204;-64
2022/12/08 04:09:55;;;;;;;14.07;12.03;;;;;;;-0.74;100.00;96165.13;5053280;28;20227;-64
2022/12/08 04:12:20;;;;;;;13.97;11.77;;;;;;;-0.63;100.00;96161.38;5053038;28;20257;-64
2022/12/08 04:14:46;;;;;;;16.33;11.57;;;;;;;-0.71;100.00;96162.22;5052987;28;20174;-63
2022/12/08 04:17:11;;;;;;;14.03;12.33;;;;;;;-0.77;100.00;96160.31;5052673;28;20205;-63
2022/12/08 04:19:39;;;;;;;14.33;11.80;;;;;;;-0.94;100.00;96157.06;5052934;28;20546;-63
2022/12/08 04:22:05;;;;;;;16.93;14.23;;;;;;;-0.89;100.00;96161.69;5052835;28;20216;-64
2022/12/08 04:24:31;;;;;;;13.93;12.13;;;;;;;-1.03;100.00;96155.50;5052636;28;20269;-64
2022/12/08 04:26:56;;;;;;;15.60;13.03;;;;;;;-1.08;100.00;96157.00;5034793;28;20179;-65
2022/12/08 04:29:21;;;;;;;15.43;13.13;;;;;;;-1.10;100.00;96153.78;5052614;28;20239;-64
2022/12/08 04:31:47;;;;;;;16.20;12.53;;;;;;;-1.13;100.00;96152.38;5052424;28;20190;-63
2022/12/08 04:34:12;;;;;;;17.00;14.20;;;;;;;-1.14;100.00;96148.19;5052490;28;20189;-63
2022/12/08 04:36:38;;;;;;;17.80;13.40;;;;;;;-1.18;100.00;96141.78;5048560;28;20237;-63
2022/12/08 04:39:03;;;;;;;14.60;12.17;;;;;;;-1.12;100.00;96148.03;5052341;28;20560;-63
2022/12/08 04:41:28;;;;;;;15.13;12.67;;;;;;;-1.11;100.00;96141.88;5052483;28;20174;-63
2022/12/08 04:43:54;;;;;;;16.67;13.27;;;;;;;-1.13;100.00;96143.84;5052431;28;20177;-64
2022/12/08 04:46:19;;;;;;;14.87;13.10;;;;;;;-1.09;100.00;96139.97;5052536;28;20248;-63
2022/12/08 04:48:44;;;;;;;15.67;12.40;;;;;;;-1.11;100.00;96137.56;5051725;28;20619;-63
2022/12/08 04:51:17;;;;;;;15.70;13.37;;;;;;;-1.22;100.00;96144.84;5052666;28;20188;-63
2022/12/08 04:53:44;;;;;;;14.77;12.77;;;;;;;-1.13;100.00;96146.41;5051341;28;20257;-65
2022/12/08 04:56:14;;;;;;;15.43;12.83;;;;;;;-1.06;100.00;96145.56;5034655;28;20181;-65
2022/12/08 04:58:39;;;;;;;15.47;12.67;;;;;;;-0.96;100.00;96137.63;5051350;28;20289;-65
2022/12/08 05:01:05;;;;;;;16.80;13.00;;;;;;;-1.16;100.00;96147.53;5052285;28;20258;-65
2022/12/08 05:03:30;;;;;;;15.23;13.07;;;;;;;-1.16;100.00;96142.41;5051138;28;20201;-64
2022/12/08 05:05:58;;;;;;;13.37;11.97;;;;;;;-1.26;100.00;96129.78;5052023;28;20271;-64
2022/12/08 05:08:24;;;;;;;13.87;12.47;;;;;;;-1.19;100.00;96131.66;5051937;28;20767;-65
2022/12/08 05:10:50;;;;;;;13.93;12.37;;;;;;;-1.22;100.00;96134.56;5052250;28;20174;-63
2022/12/08 05:13:15;;;;;;;18.50;13.40;;;;;;;-1.16;100.00;96129.56;5051841;28;20299;-65
2022/12/08 05:15:40;;;;;;;15.80;12.40;;;;;;;-1.20;100.00;96128.28;5052250;28;20174;-66
2022/12/08 05:18:06;;;;;;;16.60;12.77;;;;;;;-1.12;100.00;96127.47;5052120;28;20206;-63
2022/12/08 05:20:32;;;;;;;15.20;13.60;;;;;;;-1.20;100.00;96118.03;5052012;28;20247;-63
2022/12/08 05:22:57;;;;;;;14.03;12.33;;;;;;;-1.18;100.00;96121.22;5052090;28;20656;-62
2022/12/08 05:25:23;;;;;;;13.57;12.17;;;;;;;-1.18;100.00;96117.84;5051822;28;20292;-63
2022/12/08 05:27:48;;;;;;;14.93;12.30;;;;;;;-1.19;100.00;96123.97;5051561;28;20252;-63
2022/12/08 05:30:14;;;;;;;14.07;12.60;;;;;;;-1.24;100.00;96127.03;5052126;28;20181;-64
2022/12/08 05:32:39;;;;;;;13.37;12.07;;;;;;;-1.19;100.00;96124.75;5051912;28;20708;-65
2022/12/08 05:35:05;;;;;;;14.20;12.70;;;;;;;-1.26;100.00;96121.25;5043459;28;20314;-65
2022/12/08 05:37:31;;;;;;;13.33;11.93;;;;;;;-1.17;100.00;96122.03;5051914;28;20301;-65
2022/12/08 05:39:56;;;;;;;15.80;12.57;;;;;;;-1.21;100.00;96118.19;5052127;28;20194;-63
2022/12/08 05:42:21;;;;;;;15.20;11.77;;;;;;;-1.26;100.00;96121.25;5052143;28;20245;-64
2022/12/08 05:44:47;;;;;;;14.63;12.27;;;;;;;-1.27;100.00;96120.47;5051468;28;20197;-64
2022/12/08 05:47:12;;;;;;;14.40;12.17;;;;;;;-1.29;100.00;96125.00;5051544;28;20182;-64
2022/12/08 05:49:38;;;;;;;14.77;12.47;;;;;;;-1.30;100.00;96123.38;5051935;28;20182;-63
2022/12/08 05:52:03;;;;;;;14.20;12.57;;;;;;;-1.29;100.00;96126.75;5051976;28;20269;-63
2022/12/08 05:54:29;;;;;;;14.03;11.90;;;;;;;-1.24;100.00;96121.91;5051916;28;20178;-63
2022/12/08 05:56:54;;;;;;;16.13;11.93;;;;;;;-1.33;100.00;96118.56;5051798;28;20614;-63
2022/12/08 05:59:20;;;;;;;15.30;12.00;;;;;;;-1.24;100.00;96116.75;5051638;28;20210;-64
2022/12/08 06:01:45;;;;;;;12.97;11.53;;;;;;;-1.28;100.00;96110.34;5033852;28;20593;-62
2022/12/08 06:04:10;;;;;;;14.53;11.17;;;;;;;-1.30;100.00;96115.66;5052158;28;20178;-62
2022/12/08 06:06:37;;;;;;;13.00;11.57;;;;;;;-1.32;100.00;96112.47;5055250;28;20541;-61
2022/12/08 06:09:04;;;;;;;12.57;11.37;;;;;;;-1.22;100.00;96116.56;5055491;28;20202;-64
2022/12/08 06:11:30;;;;;;;13.47;11.23;;;;;;;-1.16;100.00;96118.47;5055617;28;20186;-62
2022/12/08 06:13:57;;;;;;;13.07;11.17;;;;;;;-1.24;100.00;96110.81;5055120;28;20236;-64
2022/12/08 06:16:24;;;;;;;13.77;11.33;;;;;;;-1.25;100.00;96107.44;5055038;28;20189;-63
2022/12/08 06:18:50;;;;;;;11.63;10.43;;;;;;;-1.17;100.00;96115.09;5055080;28;20210;-62
2022/12/08 06:21:16;;;;;;;10.77;9.67;;;;;;;-1.04;100.00;96112.78;5055408;28;20231;-62
2022/12/08 06:23:42;;;;;;;10.87;9.63;;;;;;;-1.09;100.00;96109.91;5054358;28;20186;-62
2022/12/08 06:26:13;;;;;;;11.33;9.37;;;;;;;-1.14;100.00;96113.97;5054864;28;20661;-62
2022/12/08 06:28:39;;;;;;;12.17;10.47;;;;;;;-1.19;100.00;96116.25;5054706;28;20210;-62
2022/12/08 06:31:31;;;;;;;10.97;9.80;;;;;;;-1.15;100.00;96117.50;5054993;28;20226;-61
2022/12/08 06:33:56;;;;;;;11.60;10.03;;;;;;;-1.22;100.00;96124.28;5049114;28;20194;-61
2022/12/08 06:36:25;;;;;;;13.90;11.70;;;;;;;-1.27;100.00;96124.78;5053052;28;20260;-62
2022/12/08 06:38:51;;;;;;;11.90;10.53;;;;;;;-1.25;100.00;96128.00;5055294;28;20691;-61
2022/12/08 06:41:17;;;;;;;12.73;11.43;;;;;;;-1.35;100.00;96119.72;5055369;28;20182;-58
2022/12/08 06:43:42;;;;;;;13.13;11.10;;;;;;;-1.39;100.00;96115.84;5055444;28;20178;-65
2022/12/08 06:46:12;;;;;;;13.87;10.90;;;;;;;-1.37;100.00;96117.31;5055042;28;20178;-65
2022/12/08 06:48:37;;;;;;;12.63;11.03;;;;;;;-1.32;100.00;96116.78;5054467;28;20232;-58
2022/12/08 06:51:08;;;;;;;12.70;10.90;;;;;;;-1.35;100.00;96132.56;5053275;28;20925;-58
2022/12/08 06:53:34;;;;;;;15.27;11.63;;;;;;;-1.27;100.00;96123.03;5054613;28;20730;-60
2022/12/08 06:55:59;;;;;;;14.03;11.63;;;;;;;-1.34;100.00;96122.09;5054616;28;20265;-60
2022/12/08 06:58:24;;;;;;;14.70;12.10;;;;;;;-1.32;100.00;96120.16;5054002;28;20288;-59
2022/12/08 07:00:50;;;;;;;14.63;13.20;;;;;;;-1.42;100.00;96118.78;5053345;28;20202;-58
2022/12/08 07:03:15;;;;;;;13.13;11.80;;;;;;;-1.51;100.00;96120.59;5054116;28;20178;-60
2022/12/08 07:05:41;;;;;;;14.20;11.43;;;;;;;-1.45;100.00;96117.34;5054711;28;20189;-60
2022/12/08 07:08:07;;;;;;;13.00;10.70;;;;;;;-1.37;100.00;96117.31;5054339;28;20255;-60
2022/12/08 07:10:33;;;;;;;14.33;11.93;;;;;;;-0.95;100.00;96128.97;5054030;28;20174;-66
2022/12/08 07:12:59;;;;;;;18.00;16.30;;;;;;;-0.92;100.00;96128.59;5054166;28;20266;-66
2022/12/08 07:15:24;;;;;;;16.00;12.53;;;;;;;-0.88;100.00;96132.44;5053501;28;20543;-59
2022/12/08 07:17:50;;;;;;;17.77;12.70;;;;;;;-0.99;100.00;96122.53;5053650;28;20206;-62
2022/12/08 07:20:16;;;;;;;14.70;11.93;;;;;;;-1.04;100.00;96120.47;5054055;28;20228;-62
2022/12/08 07:22:47;;;;;;;16.47;12.07;;;;;;;-1.04;100.00;96125.63;5053975;28;20277;-58
2022/12/08 07:25:13;;;;;;;14.30;12.70;;;;;;;-0.98;100.00;96126.72;5054235;28;20182;-57
2022/12/08 07:27:38;;;;;;;13.37;11.30;;;;;;;-0.85;100.00;96122.63;5053864;28;20561;-58
2022/12/08 07:30:04;;;;;;;12.73;11.40;;;;;;;-0.75;100.00;96124.13;5054043;28;20211;-58
2022/12/08 07:32:30;;;;;;;12.73;10.20;;;;;;;-0.61;100.00;96131.91;5002849;28;20194;-60
2022/12/08 07:34:55;;;;;;;14.83;11.00;;;;;;;-0.70;100.00;96130.38;5049822;28;20193;-57
2022/12/08 07:37:20;;;;;;;13.10;11.80;;;;;;;-0.67;100.00;96124.09;5053939;28;20232;-58
2022/12/08 07:39:46;;;;;;;15.50;11.47;;;;;;;-0.59;100.00;96131.72;5053378;28;20594;-57
2022/12/08 07:42:11;;;;;;;12.53;10.07;;;;;;;-0.48;100.00;96134.69;5053376;28;20661;-58
2022/12/08 07:44:37;;;;;;;11.93;10.70;;;;;;;-0.20;100.00;96140.06;5053505;28;20182;-58
2022/12/08 07:47:02;;;;;;;11.23;9.93;;;;;;;-0.06;100.00;96135.94;5053514;28;20182;-56
2022/12/08 07:49:27;;;;;;;13.07;10.60;;;;;;;-0.23;100.00;96132.72;5053297;28;20265;-57
2022/12/08 07:51:53;;;;;;;11.50;9.90;;;;;;;-0.38;100.00;96136.22;5054873;28;20205;-56
2022/12/08 07:54:18;;;;;;;12.87;11.27;;;;;;;-0.38;100.00;96131.88;5053164;28;20183;-57
2022/12/08 07:56:44;;;;;;;13.67;11.87;;;;;;;-0.31;100.00;96129.41;5053461;28;20185;-62
2022/12/08 07:59:10;;;;;;;13.73;11.10;;;;;;;-0.34;100.00;96127.19;5052652;28;20260;-58
2022/12/08 08:01:36;;;;;;;12.83;11.47;;;;;;;-0.42;100.00;96128.84;5052785;28;20231;-58
2022/12/08 08:04:04;;;;;;;13.93;10.43;;;;;;;-0.50;100.00;96128.91;5053075;28;20182;-61
2022/12/08 08:06:31;;;;;;;13.63;11.67;;;;;;;-0.37;100.00;96133.47;5053361;28;20619;-61
2022/12/08 08:08:56;;;;;;;13.77;10.87;;;;;;;-0.30;100.00;96116.34;5053112;28;20259;-61
2022/12/08 08:11:22;;;;;;;14.43;12.93;;;;;;;-0.41;100.00;96124.50;5053034;28;20646;-62
2022/12/08 08:13:49;;;;;;;17.10;12.20;;;;;;;-0.49;100.00;96116.84;5052803;28;20185;-62
2022/12/08 08:16:14;;;;;;;13.50;12.10;;;;;;;-0.28;100.00;96119.53;5052835;28;20193;-62
2022/12/08 08:18:40;;;;;;;15.67;14.07;;;;;;;-0.40;100.00;96115.81;5052983;28;20206;-63
2022/12/08 08:21:06;;;;;;;15.93;11.77;;;;;;;-0.32;100.00;96110.56;5052935;28;20188;-64
2022/12/08 08:23:32;;;;;;;16.87;13.87;;;;;;;-0.27;100.00;96113.41;5052637;28;20194;-61
2022/12/08 08:25:59;;;;;;;18.27;16.47;;;;;;;-0.11;100.00;96109.88;5052675;28;20225;-61
2022/12/08 08:28:25;;;;;;;13.93;12.30;;;;;;;-0.09;100.00;96110.50;5034471;28;20627;-61
2022/12/08 08:30:50;;;;;;;13.87;11.53;;;;;;;0.00;100.00;96117.97;5052672;28;20265;-61
2022/12/08 08:33:16;;;;;;;14.07;11.90;;;;;;;-0.18;100.00;96117.53;5050659;28;20185;-62
2022/12/08 08:35:41;;;;;;;14.03;11.23;;;;;;;-0.09;100.00;96124.19;5050517;28;20288;-62
2022/12/08 08:38:07;;;;;;;16.60;14.97;;;;;;;-0.02;100.00;96121.72;5052574;28;20228;-61
2022/12/08 08:40:33;;;;;;;22.10;20.10;;;;;;;0.03;100.00;96118.59;5034270;28;20232;-61
2022/12/08 08:43:02;;;;;;;15.37;11.20;;;;;;;-0.06;100.00;96116.09;5052601;28;20576;-61
2022/12/08 08:45:28;;;;;;;14.43;11.60;;;;;;;0.30;100.00;96112.81;5052608;28;20178;-61
2022/12/08 08:47:53;;;;;;;14.07;12.20;;;;;;;0.10;100.00;96112.56;5052379;28;20275;-61
2022/12/08 08:50:19;;;;;;;16.20;13.10;;;;;;;0.33;100.00;96109.91;5052648;28;20690;-61
2022/12/08 08:52:44;;;;;;;14.83;13.23;;;;;;;0.22;100.00;96116.31;5051815;28;20177;-68
2022/12/08 08:55:10;;;;;;;19.17;16.87;;;;;;;0.76;100.00;96109.00;5052388;28;20178;-63
2022/12/08 08:57:35;;;;;;;16.80;12.67;;;;;;;0.48;100.00;96115.81;5051547;28;20213;-61
2022/12/08 09:00:03;;;;;;;32.13;29.40;;;;;;;0.47;100.00;96110.84;5051970;28;20267;-61
2022/12/08 09:02:29;;;;;;;13.53;11.70;;;;;;;0.69;100.00;96112.50;5052456;28;20571;-62
2022/12/08 09:04:55;;;;;;;12.80;10.67;;;;;;;0.63;100.00;96108.84;5052316;28;20204;-61
2022/12/08 09:07:20;;;;;;;12.07;10.83;;;;;;;0.62;100.00;96103.88;5048877;28;20300;-60
2022/12/08 09:09:46;;;;;;;14.40;11.87;;;;;;;0.50;100.00;96105.34;5051445;28;20170;-61
2022/12/08 09:12:12;;;;;;;15.03;11.53;;;;;;;0.53;100.00;96102.38;5050508;28;20407;-61
2022/12/08 09:14:37;;;;;;;13.60;11.93;;;;;;;0.77;100.00;96099.50;5051897;28;20166;-63
2022/12/08 09:17:04;;;;;;;14.40;11.67;;;;;;;0.99;100.00;96095.16;5048491;28;20565;-61
2022/12/08 09:19:29;;;;;;;16.70;12.40;;;;;;;1.05;100.00;96090.06;5049929;28;20201;-62
2022/12/08 09:21:54;;;;;;;15.53;11.30;;;;;;;0.77;100.00;96097.72;5051495;28;20611;-61
2022/12/08 09:24:20;;;;;;;15.73;11.13;;;;;;;0.64;100.00;96095.00;5051757;28;20177;-62
2022/12/08 09:26:46;;;;;;;14.53;11.67;;;;;;;0.77;100.00;96096.91;5051922;28;20272;-62
2022/12/08 09:29:12;;;;;;;12.47;11.03;;;;;;;0.88;100.00;96090.47;5051563;28;20205;-63
2022/12/08 09:31:38;;;;;;;12.50;10.97;;;;;;;0.86;100.00;96100.16;5052108;28;20265;-63
2022/12/08 09:34:04;;;;;;;14.80;12.90;;;;;;;0.93;100.00;96094.09;5050192;28;20609;-63
2022/12/08 09:36:30;;;;;;;13.03;11.23;;;;;;;1.11;100.00;96088.53;5035002;28;20238;-63
2022/12/08 09:38:56;;;;;;;11.57;9.93;;;;;;;1.16;100.00;96092.16;5031770;28;20218;-63
2022/12/08 09:41:35;;;;;;;11.87;10.37;;;;;;;1.12;100.00;96090.91;5035380;28;20171;-62
2022/12/08 09:44:18;;;;;;;12.43;9.60;;;;;;;0.98;100.00;96084.03;5035818;28;20179;-61
2022/12/08 09:46:47;;;;;;;11.20;9.87;;;;;;;1.21;100.00;96079.50;5035313;28;20178;-62
2022/12/08 09:49:19;;;;;;;10.47;9.37;;;;;;;1.16;100.00;96079.25;5017515;28;20352;-63
2022/12/08 09:51:45;;;;;;;11.50;9.67;;;;;;;1.25;100.00;96078.13;5034791;28;20170;-62
2022/12/08 09:54:19;;;;;;;11.33;10.23;;;;;;;1.32;100.00;96078.19;5035715;28;20317;-62
2022/12/08 09:56:47;;;;;;;12.23;9.93;;;;;;;1.31;100.00;96076.59;5035853;28;20245;-62
2022/12/08 09:59:28;;;;;;;10.23;9.33;;;;;;;1.42;100.00;96076.06;5034592;28;20253;-62
2022/12/08 10:01:53;;;;;;;10.20;9.20;;;;;;;1.36;100.00;96081.97;5034942;28;20173;-62
2022/12/08 10:04:35;;;;;;;13.20;9.93;;;;;;;1.54;100.00;96072.00;5035246;28;20635;-61
2022/12/08 10:07:29;;;;;;;11.20;9.50;;;;;;;1.68;100.00;96068.50;5035267;28;20957;-62
2022/12/08 10:10:35;;;;;;;10.90;8.87;;;;;;;1.62;100.00;96069.25;5035446;28;20220;-62
2022/12/08 10:13:45;;;;;;;10.83;9.40;;;;;;;1.67;100.00;96063.56;5035317;28;20166;-64
2022/12/08 10:16:16;;;;;;;9.60;8.60;;;;;;;1.77;100.00;96066.59;5024280;28;20294;-62
2022/12/08 10:18:41;;;;;;;9.43;8.53;;;;;;;1.80;100.00;96055.88;5035178;28;20233;-62
2022/12/08 10:21:17;;;;;;;9.70;8.77;;;;;;;1.61;100.00;96053.97;5017232;28;20615;-62
2022/12/08 10:23:53;;;;;;;11.03;9.97;;;;;;;1.74;100.00;96048.88;5035387;28;20273;-62
2022/12/08 10:26:20;;;;;;;10.13;8.87;;;;;;;1.78;100.00;96044.94;5037294;28;20758;-57
2022/12/08 10:28:46;;;;;;;11.73;9.10;;;;;;;1.76;100.00;96044.34;5038680;28;20307;-61
2022/12/08 10:31:23;;;;;;;10.80;9.13;;;;;;;1.71;100.00;96053.63;5035375;28;20233;-62
2022/12/08 10:33:58;;;;;;;11.20;10.20;;;;;;;1.78;100.00;96038.97;5033412;28;20553;-62
2022/12/08 10:36:44;;;;;;;8.93;8.03;;;;;;;1.77;100.00;96045.94;5047065;28;20235;-62
2022/12/08 10:39:30;;;;;;;8.77;7.97;;;;;;;1.81;100.00;96041.97;5055310;28;20245;-62
2022/12/08 10:42:36;;;;;;;9.87;8.17;;;;;;;2.06;100.00;96039.72;5055212;28;20637;-63
2022/12/08 10:45:29;;;;;;;9.77;8.77;;;;;;;2.24;99.80;96039.19;5013232;28;20183;-63
2022/12/08 10:47:56;;;;;;;9.53;8.53;;;;;;;2.24;98.91;96039.19;5055163;28;20190;-62
2022/12/08 10:50:40;;;;;;;9.20;8.40;;;;;;;2.17;99.00;96031.44;5053972;28;20323;-63
2022/12/08 10:53:08;;;;;;;8.63;7.73;;;;;;;2.33;98.12;96033.69;5054385;28;20234;-64
2022/12/08 10:55:50;;;;;;;10.27;9.37;;;;;;;2.21;97.75;96031.84;5054798;28;20162;-61
2022/12/08 10:58:32;;;;;;;10.37;9.30;;;;;;;2.35;100.00;96034.28;5054031;28;20210;-63
2022/12/08 11:01:21;;;;;;;10.20;9.30;;;;;;;2.52;100.00;96024.38;5054747;28;20547;-63
2022/12/08 11:03:49;;;;;;;9.10;8.23;;;;;;;2.60;100.00;96020.81;5053498;28;20245;-67
2022/12/08 11:06:29;;;;;;;9.97;8.97;;;;;;;2.57;100.00;96019.41;5054396;28;20304;-58
2022/12/08 11:09:06;;;;;;;12.03;10.93;;;;;;;2.75;97.46;96009.31;5054356;28;20229;-58
2022/12/08 11:11:46;;;;;;;10.23;9.33;;;;;;;2.73;96.42;96003.53;5054461;28;20162;-60
2022/12/08 11:14:20;;;;;;;8.90;8.00;;;;;;;2.79;96.19;95989.00;5054529;28;20252;-62
2022/12/08 11:16:46;;;;;;;8.67;7.87;;;;;;;2.75;95.27;95993.78;5054372;28;20210;-56
2022/12/08 11:19:16;;;;;;;9.77;8.90;;;;;;;2.81;94.33;95987.03;5054424;28;20240;-60
2022/12/08 11:21:42;;;;;;;11.87;10.80;;;;;;;3.00;93.50;95977.69;5051016;28;20175;-61
2022/12/08 11:24:13;;;;;;;12.77;11.87;;;;;;;2.70;96.18;95982.44;5053543;28;20753;-60
2022/12/08 11:26:44;;;;;;;11.23;10.23;;;;;;;2.76;95.06;95976.47;5053451;28;20208;-57
2022/12/08 11:29:12;;;;;;;9.80;8.90;;;;;;;2.90;95.18;95976.28;5053825;28;20210;-58